sensor_id;sensor_type;location;lat;lon;timestamp;P1;durP1;ratioP1;P2;durP2;ratioP2
22754;SDS011;11544;42.020;23.094;2023-08-07T00:00:06;1.33;;;0.80;;
22754;SDS011;11544;42.020;23.094;2023-08-07T00:02:53;1.00;;;0.88;;
22754;SDS011;11544;42.020;23.094;2023-08-07T00:05:20;2.38;;;0.93;;
22754;SDS011;11544;42.020;23.094;2023-08-07T00:07:47;1.20;;;0.75;;
22754;SDS011;11544;42.020;23.094;2023-08-07T00:10:14;5.35;;;1.02;;
22754;SDS011;11544;42.020;23.094;2023-08-07T00:12:41;1.45;;;0.73;;
22754;SDS011;11544;42.020;23.094;2023-08-07T00:15:09;3.15;;;1.05;;
22754;SDS011;11544;42.020;23.094;2023-08-07T00:17:37;3.65;;;0.75;;
22754;SDS011;11544;42.020;23.094;2023-08-07T00:34:46;4.15;;;0.98;;
22754;SDS011;11544;42.020;23.094;2023-08-07T00:37:22;1.35;;;0.90;;
22754;SDS011;11544;42.020;23.094;2023-08-07T00:39:49;2.70;;;0.93;;
22754;SDS011;11544;42.020;23.094;2023-08-07T00:42:16;1.58;;;0.98;;
22754;SDS011;11544;42.020;23.094;2023-08-07T00:44:43;3.72;;;1.10;;
22754;SDS011;11544;42.020;23.094;2023-08-07T00:47:10;1.60;;;0.73;;
22754;SDS011;11544;42.020;23.094;2023-08-07T00:49:37;3.60;;;0.70;;
22754;SDS011;11544;42.020;23.094;2023-08-07T00:52:04;1.30;;;1.15;;
22754;SDS011;11544;42.020;23.094;2023-08-07T00:54:31;4.07;;;0.98;;
22754;SDS011;11544;42.020;23.094;2023-08-07T00:56:59;2.85;;;0.82;;
22754;SDS011;11544;42.020;23.094;2023-08-07T00:59:39;1.77;;;0.80;;
22754;SDS011;11544;42.020;23.094;2023-08-07T01:04:53;2.25;;;1.00;;
22754;SDS011;11544;42.020;23.094;2023-08-07T01:07:20;3.78;;;1.20;;
22754;SDS011;11544;42.020;23.094;2023-08-07T01:09:47;1.65;;;0.98;;
22754;SDS011;11544;42.020;23.094;2023-08-07T01:12:19;0.88;;;0.82;;
22754;SDS011;11544;42.020;23.094;2023-08-07T01:14:49;1.45;;;0.90;;
22754;SDS011;11544;42.020;23.094;2023-08-07T01:17:22;5.22;;;1.23;;
22754;SDS011;11544;42.020;23.094;2023-08-07T01:19:52;4.53;;;1.10;;
22754;SDS011;11544;42.020;23.094;2023-08-07T01:22:20;1.27;;;0.73;;
22754;SDS011;11544;42.020;23.094;2023-08-07T01:24:48;1.83;;;0.95;;
22754;SDS011;11544;42.020;23.094;2023-08-07T01:35:32;2.67;;;1.05;;
22754;SDS011;11544;42.020;23.094;2023-08-07T01:38:02;2.67;;;0.88;;
22754;SDS011;11544;42.020;23.094;2023-08-07T01:40:29;1.77;;;0.93;;
22754;SDS011;11544;42.020;23.094;2023-08-07T01:42:57;1.70;;;0.75;;
22754;SDS011;11544;42.020;23.094;2023-08-07T01:45:25;2.33;;;0.90;;
22754;SDS011;11544;42.020;23.094;2023-08-07T01:47:53;1.95;;;1.00;;
22754;SDS011;11544;42.020;23.094;2023-08-07T01:50:21;2.83;;;0.85;;
22754;SDS011;11544;42.020;23.094;2023-08-07T01:52:50;3.10;;;1.10;;
22754;SDS011;11544;42.020;23.094;2023-08-07T01:55:18;3.80;;;1.10;;
22754;SDS011;11544;42.020;23.094;2023-08-07T01:57:45;5.65;;;1.00;;
22754;SDS011;11544;42.020;23.094;2023-08-07T02:00:12;3.65;;;0.90;;
22754;SDS011;11544;42.020;23.094;2023-08-07T02:02:39;2.03;;;1.10;;
22754;SDS011;11544;42.020;23.094;2023-08-07T02:05:06;2.97;;;1.27;;
22754;SDS011;11544;42.020;23.094;2023-08-07T02:07:36;3.85;;;1.08;;
22754;SDS011;11544;42.020;23.094;2023-08-07T02:10:04;5.55;;;1.38;;
22754;SDS011;11544;42.020;23.094;2023-08-07T02:12:31;7.20;;;1.23;;
22754;SDS011;11544;42.020;23.094;2023-08-07T02:14:58;3.30;;;1.17;;
22754;SDS011;11544;42.020;23.094;2023-08-07T02:17:27;3.95;;;1.15;;
22754;SDS011;11544;42.020;23.094;2023-08-07T02:19:54;2.42;;;1.10;;
22754;SDS011;11544;42.020;23.094;2023-08-07T02:22:29;2.58;;;1.00;;
22754;SDS011;11544;42.020;23.094;2023-08-07T02:24:57;6.75;;;0.95;;
22754;SDS011;11544;42.020;23.094;2023-08-07T02:27:24;2.88;;;1.35;;
22754;SDS011;11544;42.020;23.094;2023-08-07T02:29:51;2.65;;;1.30;;
22754;SDS011;11544;42.020;23.094;2023-08-07T02:35:11;3.47;;;1.33;;
22754;SDS011;11544;42.020;23.094;2023-08-07T02:37:38;3.13;;;0.88;;
22754;SDS011;11544;42.020;23.094;2023-08-07T02:40:05;4.22;;;1.10;;
22754;SDS011;11544;42.020;23.094;2023-08-07T02:42:32;2.08;;;1.20;;
22754;SDS011;11544;42.020;23.094;2023-08-07T02:44:59;1.73;;;1.10;;
22754;SDS011;11544;42.020;23.094;2023-08-07T02:47:26;2.80;;;1.45;;
22754;SDS011;11544;42.020;23.094;2023-08-07T02:49:53;3.25;;;1.20;;
22754;SDS011;11544;42.020;23.094;2023-08-07T02:52:20;4.30;;;0.90;;
22754;SDS011;11544;42.020;23.094;2023-08-07T02:54:52;4.55;;;1.10;;
22754;SDS011;11544;42.020;23.094;2023-08-07T02:57:20;2.10;;;1.10;;
22754;SDS011;11544;42.020;23.094;2023-08-07T02:59:58;1.73;;;1.08;;
22754;SDS011;11544;42.020;23.094;2023-08-07T03:02:25;4.07;;;1.00;;
22754;SDS011;11544;42.020;23.094;2023-08-07T03:04:57;2.00;;;1.00;;
22754;SDS011;11544;42.020;23.094;2023-08-07T03:08:13;2.83;;;1.45;;
22754;SDS011;11544;42.020;23.094;2023-08-07T03:10:40;5.35;;;1.13;;
22754;SDS011;11544;42.020;23.094;2023-08-07T03:13:07;4.15;;;1.00;;
22754;SDS011;11544;42.020;23.094;2023-08-07T03:15:34;1.75;;;0.95;;
22754;SDS011;11544;42.020;23.094;2023-08-07T03:18:01;3.60;;;1.17;;
22754;SDS011;11544;42.020;23.094;2023-08-07T03:20:28;3.35;;;1.38;;
22754;SDS011;11544;42.020;23.094;2023-08-07T03:22:55;2.28;;;1.30;;
22754;SDS011;11544;42.020;23.094;2023-08-07T03:25:22;6.30;;;1.42;;
22754;SDS011;11544;42.020;23.094;2023-08-07T03:27:49;2.08;;;1.38;;
22754;SDS011;11544;42.020;23.094;2023-08-07T03:30:16;2.78;;;1.00;;
22754;SDS011;11544;42.020;23.094;2023-08-07T03:32:43;5.57;;;1.45;;
22754;SDS011;11544;42.020;23.094;2023-08-07T03:35:10;3.80;;;1.00;;
22754;SDS011;11544;42.020;23.094;2023-08-07T03:37:37;5.45;;;2.35;;
22754;SDS011;11544;42.020;23.094;2023-08-07T03:40:08;2.22;;;1.17;;
22754;SDS011;11544;42.020;23.094;2023-08-07T03:42:36;2.40;;;1.17;;
22754;SDS011;11544;42.020;23.094;2023-08-07T03:45:03;6.40;;;1.00;;
22754;SDS011;11544;42.020;23.094;2023-08-07T03:47:30;6.82;;;1.52;;
22754;SDS011;11544;42.020;23.094;2023-08-07T03:49:58;3.70;;;1.00;;
22754;SDS011;11544;42.020;23.094;2023-08-07T03:52:27;3.40;;;1.25;;
22754;SDS011;11544;42.020;23.094;2023-08-07T03:54:54;5.55;;;1.40;;
22754;SDS011;11544;42.020;23.094;2023-08-07T03:57:21;2.47;;;1.10;;
22754;SDS011;11544;42.020;23.094;2023-08-07T03:59:51;6.13;;;1.25;;
22754;SDS011;11544;42.020;23.094;2023-08-07T04:02:19;3.80;;;0.98;;
22754;SDS011;11544;42.020;23.094;2023-08-07T04:04:49;2.28;;;1.20;;
22754;SDS011;11544;42.020;23.094;2023-08-07T04:07:16;3.72;;;1.00;;
22754;SDS011;11544;42.020;23.094;2023-08-07T04:09:43;2.70;;;1.27;;
22754;SDS011;11544;42.020;23.094;2023-08-07T04:12:10;2.92;;;1.35;;
22754;SDS011;11544;42.020;23.094;2023-08-07T04:14:37;3.83;;;1.30;;
22754;SDS011;11544;42.020;23.094;2023-08-07T04:17:04;5.57;;;2.20;;
22754;SDS011;11544;42.020;23.094;2023-08-07T04:19:32;3.05;;;1.42;;
22754;SDS011;11544;42.020;23.094;2023-08-07T04:21:59;3.08;;;1.40;;
22754;SDS011;11544;42.020;23.094;2023-08-07T04:24:26;6.93;;;1.42;;
22754;SDS011;11544;42.020;23.094;2023-08-07T04:26:54;2.90;;;1.45;;
22754;SDS011;11544;42.020;23.094;2023-08-07T04:29:21;3.10;;;1.38;;
22754;SDS011;11544;42.020;23.094;2023-08-07T04:31:48;6.57;;;1.50;;
22754;SDS011;11544;42.020;23.094;2023-08-07T04:34:15;4.63;;;2.53;;
22754;SDS011;11544;42.020;23.094;2023-08-07T04:36:43;6.15;;;1.27;;
22754;SDS011;11544;42.020;23.094;2023-08-07T04:39:10;8.85;;;1.55;;
22754;SDS011;11544;42.020;23.094;2023-08-07T04:41:39;2.55;;;1.50;;
22754;SDS011;11544;42.020;23.094;2023-08-07T04:44:26;7.70;;;1.55;;
22754;SDS011;11544;42.020;23.094;2023-08-07T04:46:53;4.93;;;1.60;;
22754;SDS011;11544;42.020;23.094;2023-08-07T04:49:20;3.53;;;1.40;;
22754;SDS011;11544;42.020;23.094;2023-08-07T04:51:47;3.03;;;1.40;;
22754;SDS011;11544;42.020;23.094;2023-08-07T04:54:15;3.60;;;1.52;;
22754;SDS011;11544;42.020;23.094;2023-08-07T04:56:44;6.35;;;1.48;;
22754;SDS011;11544;42.020;23.094;2023-08-07T04:59:12;4.53;;;1.92;;
22754;SDS011;11544;42.020;23.094;2023-08-07T05:18:46;4.30;;;1.67;;
22754;SDS011;11544;42.020;23.094;2023-08-07T05:21:16;8.75;;;2.13;;
22754;SDS011;11544;42.020;23.094;2023-08-07T05:23:43;5.40;;;2.90;;
22754;SDS011;11544;42.020;23.094;2023-08-07T05:26:10;6.18;;;1.92;;
22754;SDS011;11544;42.020;23.094;2023-08-07T05:28:37;8.20;;;2.05;;
22754;SDS011;11544;42.020;23.094;2023-08-07T05:31:03;5.07;;;1.98;;
22754;SDS011;11544;42.020;23.094;2023-08-07T05:33:31;5.45;;;2.17;;
22754;SDS011;11544;42.020;23.094;2023-08-07T05:35:57;8.20;;;1.95;;
22754;SDS011;11544;42.020;23.094;2023-08-07T05:38:24;11.82;;;2.15;;
22754;SDS011;11544;42.020;23.094;2023-08-07T05:40:51;6.47;;;2.30;;
22754;SDS011;11544;42.020;23.094;2023-08-07T06:20:03;3.20;;;1.25;;
22754;SDS011;11544;42.020;23.094;2023-08-07T06:22:31;4.13;;;1.37;;
22754;SDS011;11544;42.020;23.094;2023-08-07T06:24:59;6.03;;;1.70;;
22754;SDS011;11544;42.020;23.094;2023-08-07T06:37:13;10.80;;;2.03;;
22754;SDS011;11544;42.020;23.094;2023-08-07T06:39:40;5.40;;;2.30;;
22754;SDS011;11544;42.020;23.094;2023-08-07T06:42:07;5.75;;;1.60;;
22754;SDS011;11544;42.020;23.094;2023-08-07T06:44:34;7.47;;;1.77;;
22754;SDS011;11544;42.020;23.094;2023-08-07T06:47:01;4.80;;;1.98;;
22754;SDS011;11544;42.020;23.094;2023-08-07T06:49:28;7.20;;;2.30;;
22754;SDS011;11544;42.020;23.094;2023-08-07T06:51:58;4.38;;;2.03;;
22754;SDS011;11544;42.020;23.094;2023-08-07T06:54:25;7.50;;;2.20;;
22754;SDS011;11544;42.020;23.094;2023-08-07T06:56:51;9.68;;;1.80;;
22754;SDS011;11544;42.020;23.094;2023-08-07T06:59:18;8.93;;;2.22;;
22754;SDS011;11544;42.020;23.094;2023-08-07T07:01:45;9.70;;;2.60;;
22754;SDS011;11544;42.020;23.094;2023-08-07T07:04:14;9.45;;;2.65;;
22754;SDS011;11544;42.020;23.094;2023-08-07T07:06:42;7.05;;;2.40;;
22754;SDS011;11544;42.020;23.094;2023-08-07T07:09:09;5.05;;;2.42;;
22754;SDS011;11544;42.020;23.094;2023-08-07T07:11:36;6.82;;;2.28;;
22754;SDS011;11544;42.020;23.094;2023-08-07T07:14:04;8.18;;;2.33;;
22754;SDS011;11544;42.020;23.094;2023-08-07T07:16:31;5.45;;;2.10;;
22754;SDS011;11544;42.020;23.094;2023-08-07T07:18:58;4.75;;;2.10;;
22754;SDS011;11544;42.020;23.094;2023-08-07T07:21:26;4.22;;;2.10;;
22754;SDS011;11544;42.020;23.094;2023-08-07T07:23:53;4.38;;;2.08;;
22754;SDS011;11544;42.020;23.094;2023-08-07T07:26:19;3.08;;;1.80;;
22754;SDS011;11544;42.020;23.094;2023-08-07T07:28:46;4.15;;;1.85;;
22754;SDS011;11544;42.020;23.094;2023-08-07T07:33:40;10.35;;;2.83;;
22754;SDS011;11544;42.020;23.094;2023-08-07T07:41:21;4.55;;;1.90;;
22754;SDS011;11544;42.020;23.094;2023-08-07T07:43:49;3.05;;;1.80;;
22754;SDS011;11544;42.020;23.094;2023-08-07T07:46:16;1.52;;;1.35;;
22754;SDS011;11544;42.020;23.094;2023-08-07T07:48:43;1.67;;;1.58;;
22754;SDS011;11544;42.020;23.094;2023-08-07T07:51:10;2.03;;;1.42;;
22754;SDS011;11544;42.020;23.094;2023-08-07T07:53:37;3.47;;;1.30;;
22754;SDS011;11544;42.020;23.094;2023-08-07T07:56:04;3.67;;;1.80;;
22754;SDS011;11544;42.020;23.094;2023-08-07T07:58:31;7.60;;;2.05;;
22754;SDS011;11544;42.020;23.094;2023-08-07T08:00:58;7.35;;;1.90;;
22754;SDS011;11544;42.020;23.094;2023-08-07T08:03:25;3.88;;;1.52;;
22754;SDS011;11544;42.020;23.094;2023-08-07T08:06:04;7.22;;;1.70;;
22754;SDS011;11544;42.020;23.094;2023-08-07T08:08:31;5.45;;;1.90;;
22754;SDS011;11544;42.020;23.094;2023-08-07T08:10:58;2.50;;;1.45;;
22754;SDS011;11544;42.020;23.094;2023-08-07T08:13:29;2.70;;;1.50;;
22754;SDS011;11544;42.020;23.094;2023-08-07T08:15:56;9.90;;;4.55;;
22754;SDS011;11544;42.020;23.094;2023-08-07T08:18:24;3.55;;;1.70;;
22754;SDS011;11544;42.020;23.094;2023-08-07T08:20:51;5.85;;;2.30;;
22754;SDS011;11544;42.020;23.094;2023-08-07T08:23:18;7.80;;;2.70;;
22754;SDS011;11544;42.020;23.094;2023-08-07T08:25:45;7.38;;;1.90;;
22754;SDS011;11544;42.020;23.094;2023-08-07T08:28:12;4.35;;;1.60;;
22754;SDS011;11544;42.020;23.094;2023-08-07T08:30:39;4.00;;;1.63;;
22754;SDS011;11544;42.020;23.094;2023-08-07T08:33:06;3.05;;;1.80;;
22754;SDS011;11544;42.020;23.094;2023-08-07T08:35:34;4.13;;;2.35;;
22754;SDS011;11544;42.020;23.094;2023-08-07T08:38:01;6.70;;;2.95;;
22754;SDS011;11544;42.020;23.094;2023-08-07T08:40:33;4.53;;;1.67;;
22754;SDS011;11544;42.020;23.094;2023-08-07T08:43:01;4.30;;;1.50;;
22754;SDS011;11544;42.020;23.094;2023-08-07T08:45:28;5.20;;;2.00;;
22754;SDS011;11544;42.020;23.094;2023-08-07T08:48:01;3.90;;;1.50;;
22754;SDS011;11544;42.020;23.094;2023-08-07T08:50:30;5.00;;;1.30;;
22754;SDS011;11544;42.020;23.094;2023-08-07T08:52:59;1.27;;;1.00;;
22754;SDS011;11544;42.020;23.094;2023-08-07T08:55:29;2.00;;;1.10;;
22754;SDS011;11544;42.020;23.094;2023-08-07T08:57:57;1.17;;;1.00;;
22754;SDS011;11544;42.020;23.094;2023-08-07T09:00:27;2.08;;;1.80;;
22754;SDS011;11544;42.020;23.094;2023-08-07T09:02:56;2.88;;;1.20;;
22754;SDS011;11544;42.020;23.094;2023-08-07T09:05:24;2.10;;;1.00;;
22754;SDS011;11544;42.020;23.094;2023-08-07T09:07:51;6.78;;;2.00;;
22754;SDS011;11544;42.020;23.094;2023-08-07T09:10:18;5.47;;;1.52;;
22754;SDS011;11544;42.020;23.094;2023-08-07T13:26:05;1.10;;;1.00;;
22754;SDS011;11544;42.020;23.094;2023-08-07T13:28:32;2.65;;;1.00;;
22754;SDS011;11544;42.020;23.094;2023-08-07T15:12:22;1.52;;;1.00;;
22754;SDS011;11544;42.020;23.094;2023-08-07T15:14:49;3.17;;;1.10;;
22754;SDS011;11544;42.020;23.094;2023-08-07T15:17:16;2.40;;;1.15;;
22754;SDS011;11544;42.020;23.094;2023-08-07T15:19:43;3.65;;;1.63;;
22754;SDS011;11544;42.020;23.094;2023-08-07T15:22:10;1.73;;;1.30;;
22754;SDS011;11544;42.020;23.094;2023-08-07T15:24:37;5.35;;;1.70;;
22754;SDS011;11544;42.020;23.094;2023-08-07T15:27:03;7.40;;;1.80;;
22754;SDS011;11544;42.020;23.094;2023-08-07T15:29:30;6.85;;;1.75;;
22754;SDS011;11544;42.020;23.094;2023-08-07T15:31:57;6.60;;;1.98;;
22754;SDS011;11544;42.020;23.094;2023-08-07T15:34:27;6.82;;;2.33;;
22754;SDS011;11544;42.020;23.094;2023-08-07T15:36:54;9.77;;;2.45;;
22754;SDS011;11544;42.020;23.094;2023-08-07T15:39:22;9.48;;;2.20;;
22754;SDS011;11544;42.020;23.094;2023-08-07T15:41:49;9.02;;;1.90;;
22754;SDS011;11544;42.020;23.094;2023-08-07T15:44:16;5.05;;;1.73;;
22754;SDS011;11544;42.020;23.094;2023-08-07T15:46:43;7.85;;;2.30;;
22754;SDS011;11544;42.020;23.094;2023-08-07T15:49:10;10.98;;;3.20;;
22754;SDS011;11544;42.020;23.094;2023-08-07T15:51:36;8.10;;;1.98;;
22754;SDS011;11544;42.020;23.094;2023-08-07T15:54:03;9.90;;;2.08;;
22754;SDS011;11544;42.020;23.094;2023-08-07T15:56:31;15.93;;;2.72;;
22754;SDS011;11544;42.020;23.094;2023-08-07T15:58:57;10.80;;;2.20;;
22754;SDS011;11544;42.020;23.094;2023-08-07T16:01:24;9.40;;;2.38;;
22754;SDS011;11544;42.020;23.094;2023-08-07T16:03:52;9.48;;;2.50;;
22754;SDS011;11544;42.020;23.094;2023-08-07T16:06:19;9.85;;;2.28;;
22754;SDS011;11544;42.020;23.094;2023-08-07T16:08:47;3.78;;;1.58;;
22754;SDS011;11544;42.020;23.094;2023-08-07T16:11:15;4.65;;;1.73;;
22754;SDS011;11544;42.020;23.094;2023-08-07T16:13:41;8.10;;;1.90;;
22754;SDS011;11544;42.020;23.094;2023-08-07T16:16:08;7.70;;;1.60;;
22754;SDS011;11544;42.020;23.094;2023-08-07T16:18:38;3.03;;;1.40;;
22754;SDS011;11544;42.020;23.094;2023-08-07T16:21:07;3.72;;;1.40;;
22754;SDS011;11544;42.020;23.094;2023-08-07T16:23:39;2.97;;;1.48;;
22754;SDS011;11544;42.020;23.094;2023-08-07T16:26:06;1.55;;;1.30;;
22754;SDS011;11544;42.020;23.094;2023-08-07T16:28:33;10.85;;;2.13;;
22754;SDS011;11544;42.020;23.094;2023-08-07T16:31:01;3.97;;;1.58;;
22754;SDS011;11544;42.020;23.094;2023-08-07T16:33:30;4.13;;;1.65;;
22754;SDS011;11544;42.020;23.094;2023-08-07T16:35:57;3.10;;;1.58;;
22754;SDS011;11544;42.020;23.094;2023-08-07T16:38:24;4.60;;;1.90;;
22754;SDS011;11544;42.020;23.094;2023-08-07T16:40:51;3.30;;;1.80;;
22754;SDS011;11544;42.020;23.094;2023-08-07T16:43:19;6.28;;;2.40;;
22754;SDS011;11544;42.020;23.094;2023-08-07T16:45:46;3.67;;;1.70;;
22754;SDS011;11544;42.020;23.094;2023-08-07T16:48:16;2.83;;;1.65;;
22754;SDS011;11544;42.020;23.094;2023-08-07T16:50:43;6.93;;;2.17;;
22754;SDS011;11544;42.020;23.094;2023-08-07T16:53:35;4.70;;;1.92;;
22754;SDS011;11544;42.020;23.094;2023-08-07T16:56:18;6.50;;;1.92;;
22754;SDS011;11544;42.020;23.094;2023-08-07T16:58:52;6.22;;;1.85;;
22754;SDS011;11544;42.020;23.094;2023-08-07T17:01:20;7.45;;;2.03;;
22754;SDS011;11544;42.020;23.094;2023-08-07T17:03:48;7.60;;;1.70;;
22754;SDS011;11544;42.020;23.094;2023-08-07T17:06:22;7.45;;;2.45;;
22754;SDS011;11544;42.020;23.094;2023-08-07T17:08:49;4.75;;;2.22;;
22754;SDS011;11544;42.020;23.094;2023-08-07T17:11:19;5.97;;;2.00;;
22754;SDS011;11544;42.020;23.094;2023-08-07T17:13:46;6.57;;;1.92;;
22754;SDS011;11544;42.020;23.094;2023-08-07T17:16:13;6.30;;;1.83;;
22754;SDS011;11544;42.020;23.094;2023-08-07T17:18:46;2.10;;;1.60;;
22754;SDS011;11544;42.020;23.094;2023-08-07T17:21:14;4.25;;;1.60;;
22754;SDS011;11544;42.020;23.094;2023-08-07T17:23:41;5.60;;;1.80;;
22754;SDS011;11544;42.020;23.094;2023-08-07T17:26:09;9.32;;;2.50;;
22754;SDS011;11544;42.020;23.094;2023-08-07T17:28:36;5.47;;;1.85;;
22754;SDS011;11544;42.020;23.094;2023-08-07T17:31:03;2.67;;;1.80;;
22754;SDS011;11544;42.020;23.094;2023-08-07T17:33:31;4.60;;;1.92;;
22754;SDS011;11544;42.020;23.094;2023-08-07T17:36:00;4.68;;;1.90;;
22754;SDS011;11544;42.020;23.094;2023-08-07T17:38:30;6.65;;;2.30;;
22754;SDS011;11544;42.020;23.094;2023-08-07T17:41:02;5.20;;;2.30;;
22754;SDS011;11544;42.020;23.094;2023-08-07T17:43:30;8.88;;;2.15;;
22754;SDS011;11544;42.020;23.094;2023-08-07T17:45:57;3.40;;;1.65;;
22754;SDS011;11544;42.020;23.094;2023-08-07T17:48:24;2.13;;;1.60;;
22754;SDS011;11544;42.020;23.094;2023-08-07T17:50:51;4.32;;;1.67;;
22754;SDS011;11544;42.020;23.094;2023-08-07T17:53:20;3.65;;;2.10;;
22754;SDS011;11544;42.020;23.094;2023-08-07T17:55:47;8.10;;;2.45;;
22754;SDS011;11544;42.020;23.094;2023-08-07T17:58:14;4.82;;;1.90;;
22754;SDS011;11544;42.020;23.094;2023-08-07T18:03:30;6.25;;;1.88;;
22754;SDS011;11544;42.020;23.094;2023-08-07T18:05:59;4.05;;;1.80;;
22754;SDS011;11544;42.020;23.094;2023-08-07T18:08:26;4.05;;;1.85;;
22754;SDS011;11544;42.020;23.094;2023-08-07T18:10:56;3.70;;;1.50;;
22754;SDS011;11544;42.020;23.094;2023-08-07T18:13:23;2.65;;;1.70;;
22754;SDS011;11544;42.020;23.094;2023-08-07T18:15:50;5.10;;;1.80;;
22754;SDS011;11544;42.020;23.094;2023-08-07T18:18:17;3.00;;;1.77;;
22754;SDS011;11544;42.020;23.094;2023-08-07T18:20:44;4.60;;;2.13;;
22754;SDS011;11544;42.020;23.094;2023-08-07T18:23:11;5.97;;;2.13;;
22754;SDS011;11544;42.020;23.094;2023-08-07T18:25:53;4.88;;;1.90;;
22754;SDS011;11544;42.020;23.094;2023-08-07T18:28:20;3.17;;;1.58;;
22754;SDS011;11544;42.020;23.094;2023-08-07T18:30:49;7.72;;;1.75;;
22754;SDS011;11544;42.020;23.094;2023-08-07T18:33:16;3.45;;;1.80;;
22754;SDS011;11544;42.020;23.094;2023-08-07T18:35:45;9.90;;;2.67;;
22754;SDS011;11544;42.020;23.094;2023-08-07T18:38:12;4.45;;;1.80;;
22754;SDS011;11544;42.020;23.094;2023-08-07T18:40:39;2.33;;;1.58;;
22754;SDS011;11544;42.020;23.094;2023-08-07T18:43:06;6.97;;;1.70;;
22754;SDS011;11544;42.020;23.094;2023-08-07T18:45:33;4.13;;;1.95;;
22754;SDS011;11544;42.020;23.094;2023-08-07T18:48:00;2.63;;;1.58;;
22754;SDS011;11544;42.020;23.094;2023-08-07T18:50:27;4.68;;;1.70;;
22754;SDS011;11544;42.020;23.094;2023-08-07T18:52:54;3.13;;;1.73;;
22754;SDS011;11544;42.020;23.094;2023-08-07T18:55:21;2.33;;;1.50;;
22754;SDS011;11544;42.020;23.094;2023-08-07T18:57:48;4.10;;;1.80;;
22754;SDS011;11544;42.020;23.094;2023-08-07T19:00:15;2.92;;;1.58;;
22754;SDS011;11544;42.020;23.094;2023-08-07T19:02:43;3.83;;;1.80;;
22754;SDS011;11544;42.020;23.094;2023-08-07T19:05:12;2.70;;;1.65;;
22754;SDS011;11544;42.020;23.094;2023-08-07T19:07:59;1.98;;;1.73;;
22754;SDS011;11544;42.020;23.094;2023-08-07T19:10:28;3.97;;;1.50;;
22754;SDS011;11544;42.020;23.094;2023-08-07T19:13:16;3.50;;;2.03;;
22754;SDS011;11544;42.020;23.094;2023-08-07T19:15:43;4.78;;;1.63;;
22754;SDS011;11544;42.020;23.094;2023-08-07T19:18:16;2.35;;;1.63;;
22754;SDS011;11544;42.020;23.094;2023-08-07T19:20:47;3.42;;;1.55;;
22754;SDS011;11544;42.020;23.094;2023-08-07T19:23:16;3.33;;;1.60;;
22754;SDS011;11544;42.020;23.094;2023-08-07T19:25:43;3.75;;;1.83;;
22754;SDS011;11544;42.020;23.094;2023-08-07T19:28:10;3.85;;;1.50;;
22754;SDS011;11544;42.020;23.094;2023-08-07T19:30:39;4.70;;;1.50;;
22754;SDS011;11544;42.020;23.094;2023-08-07T19:33:21;1.90;;;1.50;;
22754;SDS011;11544;42.020;23.094;2023-08-07T19:35:48;1.38;;;1.20;;
22754;SDS011;11544;42.020;23.094;2023-08-07T19:38:15;3.33;;;1.75;;
22754;SDS011;11544;42.020;23.094;2023-08-07T19:40:41;4.70;;;1.50;;
22754;SDS011;11544;42.020;23.094;2023-08-07T19:43:09;5.18;;;1.90;;
22754;SDS011;11544;42.020;23.094;2023-08-07T19:45:36;8.13;;;1.65;;
22754;SDS011;11544;42.020;23.094;2023-08-07T19:48:03;5.95;;;2.00;;
22754;SDS011;11544;42.020;23.094;2023-08-07T19:50:30;1.77;;;1.45;;
22754;SDS011;11544;42.020;23.094;2023-08-07T19:52:57;4.40;;;1.48;;
22754;SDS011;11544;42.020;23.094;2023-08-07T19:55:26;3.50;;;1.65;;
22754;SDS011;11544;42.020;23.094;2023-08-07T20:41:49;3.00;;;1.42;;
22754;SDS011;11544;42.020;23.094;2023-08-07T20:44:17;3.05;;;1.67;;
22754;SDS011;11544;42.020;23.094;2023-08-07T20:46:44;2.50;;;1.58;;
22754;SDS011;11544;42.020;23.094;2023-08-07T20:49:11;3.53;;;1.73;;
22754;SDS011;11544;42.020;23.094;2023-08-07T20:51:38;1.63;;;1.50;;
22754;SDS011;11544;42.020;23.094;2023-08-07T20:54:05;3.72;;;2.22;;
22754;SDS011;11544;42.020;23.094;2023-08-07T20:56:32;7.53;;;2.00;;
22754;SDS011;11544;42.020;23.094;2023-08-07T20:58:59;5.72;;;1.80;;
22754;SDS011;11544;42.020;23.094;2023-08-07T21:01:26;4.07;;;2.03;;
22754;SDS011;11544;42.020;23.094;2023-08-07T21:03:54;6.88;;;2.20;;
22754;SDS011;11544;42.020;23.094;2023-08-07T21:06:21;4.13;;;2.10;;
22754;SDS011;11544;42.020;23.094;2023-08-07T21:08:48;4.97;;;2.20;;
22754;SDS011;11544;42.020;23.094;2023-08-07T21:11:15;3.90;;;2.30;;
22754;SDS011;11544;42.020;23.094;2023-08-07T21:13:42;5.80;;;2.20;;
22754;SDS011;11544;42.020;23.094;2023-08-07T21:16:09;6.90;;;2.20;;
22754;SDS011;11544;42.020;23.094;2023-08-07T21:18:36;3.78;;;2.25;;
22754;SDS011;11544;42.020;23.094;2023-08-07T21:21:03;4.22;;;1.95;;
22754;SDS011;11544;42.020;23.094;2023-08-07T21:23:30;2.33;;;1.80;;
22754;SDS011;11544;42.020;23.094;2023-08-07T21:26:00;4.30;;;2.40;;
22754;SDS011;11544;42.020;23.094;2023-08-07T21:28:28;3.85;;;2.17;;
22754;SDS011;11544;42.020;23.094;2023-08-07T21:30:55;4.35;;;2.08;;
22754;SDS011;11544;42.020;23.094;2023-08-07T21:33:46;3.70;;;2.17;;
22754;SDS011;11544;42.020;23.094;2023-08-07T21:36:35;4.65;;;2.40;;
22754;SDS011;11544;42.020;23.094;2023-08-07T21:39:03;5.93;;;2.72;;
22754;SDS011;11544;42.020;23.094;2023-08-07T21:41:37;3.30;;;2.35;;
22754;SDS011;11544;42.020;23.094;2023-08-07T21:44:09;7.53;;;2.67;;
22754;SDS011;11544;42.020;23.094;2023-08-07T21:46:41;5.15;;;2.63;;
22754;SDS011;11544;42.020;23.094;2023-08-07T21:49:10;3.97;;;2.38;;
22754;SDS011;11544;42.020;23.094;2023-08-07T21:51:37;5.03;;;2.08;;
22754;SDS011;11544;42.020;23.094;2023-08-07T22:18:35;6.13;;;2.88;;
22754;SDS011;11544;42.020;23.094;2023-08-07T22:21:16;5.47;;;2.40;;
22754;SDS011;11544;42.020;23.094;2023-08-07T22:23:49;4.93;;;2.00;;
22754;SDS011;11544;42.020;23.094;2023-08-07T22:26:17;4.40;;;2.58;;
22754;SDS011;11544;42.020;23.094;2023-08-07T22:28:45;3.75;;;2.75;;
22754;SDS011;11544;42.020;23.094;2023-08-07T23:01:24;3.60;;;1.70;;
22754;SDS011;11544;42.020;23.094;2023-08-07T23:03:51;3.63;;;1.90;;
22754;SDS011;11544;42.020;23.094;2023-08-07T23:06:24;2.08;;;1.60;;
22754;SDS011;11544;42.020;23.094;2023-08-07T23:08:51;1.95;;;1.45;;
22754;SDS011;11544;42.020;23.094;2023-08-07T23:11:18;1.98;;;1.40;;
22754;SDS011;11544;42.020;23.094;2023-08-07T23:13:46;4.50;;;1.48;;
22754;SDS011;11544;42.020;23.094;2023-08-07T23:16:13;5.95;;;1.60;;
22754;SDS011;11544;42.020;23.094;2023-08-07T23:18:40;3.88;;;1.58;;
22754;SDS011;11544;42.020;23.094;2023-08-07T23:21:07;1.80;;;1.30;;
22754;SDS011;11544;42.020;23.094;2023-08-07T23:23:34;2.38;;;1.55;;
22754;SDS011;11544;42.020;23.094;2023-08-07T23:26:01;3.47;;;1.63;;
22754;SDS011;11544;42.020;23.094;2023-08-07T23:28:28;1.65;;;1.38;;
22754;SDS011;11544;42.020;23.094;2023-08-07T23:30:55;2.45;;;1.35;;
22754;SDS011;11544;42.020;23.094;2023-08-07T23:33:23;4.80;;;1.67;;
22754;SDS011;11544;42.020;23.094;2023-08-07T23:35:50;3.30;;;1.08;;
22754;SDS011;11544;42.020;23.094;2023-08-07T23:38:17;4.57;;;1.40;;
22754;SDS011;11544;42.020;23.094;2023-08-07T23:40:44;1.85;;;1.30;;
22754;SDS011;11544;42.020;23.094;2023-08-07T23:43:14;5.43;;;1.60;;
22754;SDS011;11544;42.020;23.094;2023-08-07T23:45:41;2.00;;;1.27;;
22754;SDS011;11544;42.020;23.094;2023-08-07T23:48:08;2.58;;;1.60;;
22754;SDS011;11544;42.020;23.094;2023-08-07T23:50:35;3.67;;;1.27;;
22754;SDS011;11544;42.020;23.094;2023-08-07T23:53:02;1.40;;;1.25;;
22754;SDS011;11544;42.020;23.094;2023-08-07T23:55:29;1.40;;;1.13;;